createdAt,value
2019-06-26T00:00:42.774Z,101773.39
2019-06-26T00:03:18.052Z,101769.98
2019-06-26T00:05:53.193Z,101764.55
2019-06-26T00:08:28.230Z,101769.83
2019-06-26T00:11:03.350Z,101769.98
2019-06-26T00:13:38.442Z,101768.95
2019-06-26T00:16:13.430Z,101774.83
2019-06-26T00:18:48.547Z,101775.87
2019-06-26T00:21:23.524Z,101773.35
2019-06-26T00:23:58.609Z,101775.51
2019-06-26T00:26:33.901Z,101772.81
2019-06-26T00:29:08.875Z,101777.86
2019-06-26T00:31:44.039Z,101776.32
2019-06-26T00:34:19.007Z,101777.46
2019-06-26T00:36:54.010Z,101775.25
2019-06-26T00:39:29.078Z,101773.02
2019-06-26T00:42:04.077Z,101778.39
2019-06-26T00:44:39.068Z,101776.80
2019-06-26T00:47:14.146Z,101777.05
2019-06-26T00:49:49.287Z,101775.87
2019-06-26T00:52:24.308Z,101778.48
2019-06-26T00:54:59.263Z,101780.36
2019-06-26T00:57:34.373Z,101782.23
2019-06-26T01:00:13.140Z,101788.42
2019-06-26T01:02:48.302Z,101790.95
2019-06-26T01:05:24.219Z,101781.84
2019-06-26T01:07:59.345Z,101792.97
2019-06-26T01:10:34.420Z,101792.04
2019-06-26T01:13:09.535Z,101794.97
2019-06-26T01:15:44.988Z,101798.16
2019-06-26T01:18:20.122Z,101797.30
2019-06-26T01:20:55.211Z,101798.22
2019-06-26T01:23:30.222Z,101805.50
2019-06-26T01:26:05.242Z,101805.89
2019-06-26T01:28:40.408Z,101802.98
2019-06-26T01:31:15.408Z,101806.45
2019-06-26T01:33:50.713Z,101805.58
2019-06-26T01:36:25.723Z,101810.11
2019-06-26T01:39:00.690Z,101810.11
2019-06-26T01:41:37.333Z,101816.64
2019-06-26T01:44:15.247Z,101815.94
2019-06-26T01:46:48.995Z,101817.27
2019-06-26T01:49:24.191Z,101817.98
2019-06-26T01:51:59.297Z,101823.30
2019-06-26T01:54:34.267Z,101831.51
2019-06-26T01:57:09.279Z,101827.25
2019-06-26T01:59:44.500Z,101825.73
2019-06-26T02:02:19.565Z,101828.53
2019-06-26T02:04:54.543Z,101826.47
2019-06-26T02:07:31.841Z,101826.23
2019-06-26T02:10:07.416Z,101826.32
2019-06-26T02:12:44.103Z,101827.75
2019-06-26T02:15:19.372Z,101827.02
2019-06-26T02:17:54.477Z,101825.69
2019-06-26T02:20:29.603Z,101827.22
2019-06-26T02:23:05.388Z,101831.11
2019-06-26T02:25:40.442Z,101836.34
2019-06-26T02:28:16.679Z,101831.42
2019-06-26T02:30:52.010Z,101837.28
2019-06-26T02:33:27.090Z,101836.16
2019-06-26T02:36:02.043Z,101840.66
2019-06-26T02:38:37.225Z,101838.37
2019-06-26T02:41:12.220Z,101838.17
2019-06-26T02:43:53.382Z,101846.14
2019-06-26T02:46:28.489Z,101846.84
2019-06-26T02:49:03.557Z,101848.48
2019-06-26T02:51:38.512Z,101849.40
2019-06-26T02:54:13.722Z,101852.09
2019-06-26T02:56:48.701Z,101858.27
2019-06-26T02:59:23.824Z,101855.16
2019-06-26T03:01:58.773Z,101854.68
2019-06-26T03:04:33.802Z,101856.16
2019-06-26T03:07:08.785Z,101863.52
2019-06-26T03:09:43.761Z,101875.61
2019-06-26T03:12:18.784Z,101877.25
2019-06-26T03:15:08.436Z,101873.05
2019-06-26T03:17:33.872Z,101878.98
2019-06-26T03:20:10.424Z,101884.83
2019-06-26T03:22:47.161Z,101887.92
2019-06-26T03:25:22.135Z,101882.25
2019-06-26T03:27:57.148Z,101884.53
2019-06-26T03:30:32.171Z,101888.66
2019-06-26T03:33:07.482Z,101891.47
2019-06-26T03:35:42.435Z,101895.19
2019-06-26T03:38:17.459Z,101896.48
2019-06-26T03:40:52.476Z,101899.14
2019-06-26T03:43:27.537Z,101910.52
2019-06-26T03:46:02.549Z,101914.55
2019-06-26T03:48:37.561Z,101915.52
2019-06-26T03:51:14.000Z,101907.02
2019-06-26T03:53:49.308Z,101908.70
2019-06-26T03:56:24.289Z,101917.53
2019-06-26T03:58:59.396Z,101930.02
2019-06-26T04:01:34.478Z,101931.27
2019-06-26T04:04:09.570Z,101932.19
2019-06-26T04:06:44.570Z,101939.50
2019-06-26T04:09:19.565Z,101935.11
2019-06-26T04:11:54.756Z,101937.62
2019-06-26T04:14:29.880Z,101939.88
2019-06-26T04:17:10.242Z,101937.86
2019-06-26T04:19:45.258Z,101949.64
2019-06-26T04:22:20.270Z,101942.89
2019-06-26T04:24:55.490Z,101954.67
2019-06-26T04:27:30.568Z,101956.67
2019-06-26T04:30:06.311Z,101957.61
2019-06-26T04:32:41.400Z,101966.13
2019-06-26T04:35:16.603Z,101966.31
2019-06-26T04:37:51.730Z,101972.34
2019-06-26T04:40:26.854Z,101974.25
2019-06-26T04:43:01.955Z,101974.25
2019-06-26T04:45:37.152Z,101984.73
2019-06-26T04:48:12.206Z,101987.58
2019-06-26T04:50:47.199Z,101998.22
2019-06-26T04:53:23.976Z,101996.16
2019-06-26T04:55:59.283Z,102001.98
2019-06-26T04:58:34.424Z,102003.50
2019-06-26T05:01:09.461Z,101998.33
2019-06-26T05:03:44.557Z,102009.09
2019-06-26T05:06:19.812Z,102012.91
2019-06-26T05:08:54.880Z,102021.38
2019-06-26T05:11:29.971Z,102017.39
2019-06-26T05:14:05.898Z,102024.55
2019-06-26T05:16:41.059Z,102022.72
2019-06-26T05:19:17.200Z,102025.66
2019-06-26T05:21:52.206Z,102024.06
2019-06-26T05:24:27.245Z,102025.73
2019-06-26T05:27:02.898Z,102031.66
2019-06-26T05:29:38.078Z,102032.31
2019-06-26T05:32:13.169Z,102028.59
2019-06-26T05:34:48.164Z,102042.40
2019-06-26T05:37:23.226Z,102041.89
2019-06-26T05:39:58.592Z,102050.31
2019-06-26T05:42:34.508Z,102052.09
2019-06-26T05:45:14.121Z,102054.80
2019-06-26T05:47:49.259Z,102054.59
2019-06-26T05:50:24.741Z,102062.66
2019-06-26T05:52:59.730Z,102063.94
2019-06-26T05:55:36.357Z,102072.55
2019-06-26T05:58:11.465Z,102072.81
2019-06-26T06:00:48.063Z,102077.64
2019-06-26T06:03:23.338Z,102080.20
2019-06-26T06:05:58.475Z,102086.97
2019-06-26T06:08:33.935Z,102084.30
2019-06-26T06:11:09.124Z,102089.54
2019-06-26T06:13:44.115Z,102098.05
2019-06-26T06:16:20.356Z,102095.66
2019-06-26T06:18:55.497Z,102101.03
2019-06-26T06:21:31.270Z,102095.66
2019-06-26T06:24:06.720Z,102093.44
2019-06-26T06:26:41.773Z,102104.41
2019-06-26T06:29:16.884Z,102109.68
2019-06-26T06:31:51.980Z,102105.70
2019-06-26T06:34:26.989Z,102107.27
2019-06-26T06:37:02.111Z,102109.77
2019-06-26T06:39:37.208Z,102113.08
2019-06-26T06:42:12.299Z,102117.72
2019-06-26T06:44:47.590Z,102118.34
2019-06-26T06:47:23.411Z,102121.61
2019-06-26T06:49:58.632Z,102118.21
2019-06-26T06:52:33.910Z,102122.67
2019-06-26T06:55:09.696Z,102120.58
2019-06-26T06:57:45.484Z,102124.79
2019-06-26T07:00:21.775Z,102129.13
2019-06-26T07:02:57.092Z,102128.45
2019-06-26T07:05:32.132Z,102133.46
2019-06-26T07:08:07.101Z,102136.63
2019-06-26T07:10:42.251Z,102129.41
2019-06-26T07:13:17.756Z,102132.70
2019-06-26T07:15:52.811Z,102135.56
2019-06-26T07:18:27.913Z,102147.93
2019-06-26T07:21:04.049Z,102137.61
2019-06-26T07:23:39.162Z,102156.66
2019-06-26T07:26:14.138Z,102159.80
2019-06-26T07:28:49.184Z,102163.86
2019-06-26T07:31:24.330Z,102167.39
2019-06-26T07:33:59.501Z,102158.70
2019-06-26T07:36:35.238Z,102160.27
2019-06-26T07:39:10.267Z,102164.63
2019-06-26T07:41:45.259Z,102171.51
2019-06-26T07:44:20.294Z,102176.23
2019-06-26T07:46:55.264Z,102174.61
2019-06-26T07:49:30.425Z,102170.59
2019-06-26T07:52:05.407Z,102184.92
2019-06-26T07:54:40.494Z,102186.69
2019-06-26T07:57:15.524Z,102179.08
2019-06-26T07:59:50.626Z,102184.72
2019-06-26T08:02:25.692Z,102185.66
2019-06-26T08:05:02.859Z,102188.73
2019-06-26T08:07:37.833Z,102192.95
2019-06-26T08:10:16.400Z,102189.77
2019-06-26T08:12:51.542Z,102194.23
2019-06-26T08:15:26.746Z,102198.19
2019-06-26T08:18:01.784Z,102192.58
2019-06-26T08:20:51.627Z,102203.02
2019-06-26T08:23:13.523Z,102211.23
2019-06-26T08:25:48.644Z,102206.78
2019-06-26T08:28:23.933Z,102213.53
2019-06-26T08:30:59.033Z,102209.73
2019-06-26T08:33:34.249Z,102212.38
2019-06-26T08:36:09.755Z,102205.88
2019-06-26T08:38:44.732Z,102214.33
2019-06-26T08:41:19.846Z,102206.66
2019-06-26T08:43:54.815Z,102219.35
2019-06-26T08:46:29.794Z,102221.05
2019-06-26T08:49:04.792Z,102226.29
2019-06-26T08:51:39.930Z,102232.93
2019-06-26T08:54:14.976Z,102241.12
2019-06-26T08:56:49.966Z,102246.73
2019-06-26T08:59:24.931Z,102255.17
2019-06-26T09:02:00.127Z,102248.17
2019-06-26T09:04:35.408Z,102248.73
2019-06-26T09:07:10.707Z,102254.36
2019-06-26T09:09:45.703Z,102251.77
2019-06-26T09:12:20.714Z,102258.88
2019-06-26T09:14:55.694Z,102257.06
2019-06-26T09:17:30.705Z,102259.91
2019-06-26T09:20:06.888Z,102256.39
2019-06-26T09:22:42.316Z,102273.21
2019-06-26T09:25:21.913Z,102271.64
2019-06-26T09:27:54.097Z,102279.25
2019-06-26T09:30:29.614Z,102277.44
2019-06-26T09:33:04.725Z,102286.06
2019-06-26T09:35:40.762Z,102283.56
2019-06-26T09:38:15.917Z,102290.31
2019-06-26T09:40:51.013Z,102293.88
2019-06-26T09:43:26.218Z,102294.52
2019-06-26T09:46:01.393Z,102298.58
2019-06-26T09:48:51.511Z,102305.72
2019-06-26T09:51:14.148Z,102318.00
2019-06-26T09:53:49.103Z,102315.61
2019-06-26T09:56:24.225Z,102315.47
2019-06-26T09:58:59.380Z,102321.98
2019-06-26T10:01:36.218Z,102325.42
2019-06-26T10:04:11.390Z,102318.47
2019-06-26T10:06:46.411Z,102326.45
2019-06-26T10:09:21.806Z,102321.02
2019-06-26T10:11:56.814Z,102323.91
2019-06-26T10:14:46.559Z,102325.20
2019-06-26T10:17:10.152Z,102323.80
2019-06-26T10:19:45.233Z,102332.52
2019-06-26T10:22:20.540Z,102333.83
2019-06-26T10:24:55.650Z,102331.33
2019-06-26T10:27:30.801Z,102332.90
2019-06-26T10:30:07.438Z,102334.44
2019-06-26T10:32:42.687Z,102340.67
2019-06-26T10:35:18.801Z,102338.94
2019-06-26T10:37:53.792Z,102342.39
2019-06-26T10:40:28.866Z,102342.73
2019-06-26T10:43:03.910Z,102352.81
2019-06-26T10:45:38.899Z,102354.91
2019-06-26T10:48:13.907Z,102357.16
2019-06-26T10:50:57.930Z,102362.09
2019-06-26T10:53:25.666Z,102362.03
2019-06-26T10:56:00.747Z,102368.13
2019-06-26T10:58:35.729Z,102378.33
2019-06-26T11:01:11.063Z,102373.38
2019-06-26T11:03:46.660Z,102365.03
2019-06-26T11:06:24.202Z,102367.84
2019-06-26T11:08:59.345Z,102371.52
2019-06-26T11:11:34.576Z,102379.26
2019-06-26T11:14:09.559Z,102374.29
2019-06-26T11:16:44.639Z,102369.37
2019-06-26T11:19:19.767Z,102370.08
2019-06-26T11:21:54.923Z,102362.32
2019-06-26T11:24:30.068Z,102370.45
2019-06-26T11:27:05.051Z,102374.27
2019-06-26T11:29:40.823Z,102366.46
2019-06-26T11:32:15.952Z,102368.98
2019-06-26T11:34:51.332Z,102378.33
2019-06-26T11:37:27.420Z,102395.25
2019-06-26T11:40:02.799Z,102400.16
2019-06-26T11:42:37.981Z,102404.57
2019-06-26T11:45:13.961Z,102399.45
2019-06-26T11:47:49.200Z,102407.34
2019-06-26T11:50:30.336Z,102404.77
2019-06-26T11:53:05.412Z,102411.34
2019-06-26T11:55:40.597Z,102408.75
2019-06-26T11:58:15.611Z,102419.59
2019-06-26T12:00:50.853Z,102412.80
2019-06-26T12:03:26.333Z,102404.52
2019-06-26T12:06:17.832Z,102407.50
2019-06-26T12:08:38.778Z,102404.14
2019-06-26T12:11:13.852Z,102404.53
2019-06-26T12:13:49.209Z,102404.23
2019-06-26T12:16:24.435Z,102407.00
2019-06-26T12:18:59.460Z,102405.40
2019-06-26T12:21:34.609Z,102405.18
2019-06-26T12:24:10.619Z,102409.69
2019-06-26T12:26:45.614Z,102412.66
2019-06-26T12:29:20.762Z,102409.02
2019-06-26T12:31:55.859Z,102405.94
2019-06-26T12:34:31.096Z,102407.62
2019-06-26T12:37:06.376Z,102419.44
2019-06-26T12:39:41.661Z,102425.88
2019-06-26T12:42:16.950Z,102424.54
2019-06-26T12:44:54.206Z,102421.55
2019-06-26T12:47:29.295Z,102418.62
2019-06-26T12:50:06.050Z,102422.38
2019-06-26T12:52:41.297Z,102412.52
2019-06-26T12:55:16.295Z,102416.60
2019-06-26T12:57:52.884Z,102419.81
2019-06-26T13:00:28.075Z,102423.37
2019-06-26T13:03:03.370Z,102425.55
2019-06-26T13:05:38.386Z,102424.36
2019-06-26T13:08:13.513Z,102422.34
2019-06-26T13:10:50.365Z,102415.45
2019-06-26T13:13:25.245Z,102422.00
2019-06-26T13:16:00.286Z,102415.45
2019-06-26T13:18:35.388Z,102415.77
2019-06-26T13:21:10.579Z,102414.58
2019-06-26T13:23:45.923Z,102410.41
2019-06-26T13:26:21.107Z,102404.02
2019-06-26T13:28:56.267Z,102410.45
2019-06-26T13:31:31.419Z,102424.95
2019-06-26T13:34:06.809Z,102429.23
2019-06-26T13:36:41.915Z,102429.59
2019-06-26T13:39:16.893Z,102431.63
2019-06-26T13:41:51.909Z,102434.86
2019-06-26T13:44:28.194Z,102447.62
2019-06-26T13:47:03.219Z,102453.30
2019-06-26T13:49:38.224Z,102450.19
2019-06-26T13:52:13.217Z,102445.27
2019-06-26T13:54:48.190Z,102452.29
2019-06-26T13:57:23.195Z,102455.38
2019-06-26T13:59:58.291Z,102459.23
2019-06-26T14:02:33.732Z,102469.86
2019-06-26T14:05:09.044Z,102461.95
2019-06-26T14:07:44.013Z,102461.16
2019-06-26T14:10:19.307Z,102466.89
2019-06-26T14:12:54.342Z,102470.00
2019-06-26T14:15:29.525Z,102473.02
2019-06-26T14:18:04.549Z,102471.36
2019-06-26T14:20:39.733Z,102475.44
2019-06-26T14:23:14.879Z,102476.34
2019-06-26T14:25:49.861Z,102481.41
2019-06-26T14:28:24.956Z,102491.34
2019-06-26T14:31:01.801Z,102490.46
2019-06-26T14:33:39.058Z,102483.57
2019-06-26T14:36:14.071Z,102491.88
2019-06-26T14:38:49.184Z,102476.88
2019-06-26T14:41:25.240Z,102475.14
2019-06-26T14:44:00.294Z,102475.02
2019-06-26T14:46:35.444Z,102470.84
2019-06-26T14:49:15.139Z,102478.80
2019-06-26T14:51:54.572Z,102485.33
2019-06-26T14:54:29.862Z,102494.09
2019-06-26T14:57:05.110Z,102494.95
2019-06-26T14:59:40.132Z,102496.83
2019-06-26T15:02:15.233Z,102490.57
2019-06-26T15:04:51.031Z,102484.58
2019-06-26T15:07:26.035Z,102488.19
2019-06-26T15:10:01.039Z,102495.23
2019-06-26T15:12:36.059Z,102485.16
2019-06-26T15:18:15.550Z,102493.56
2019-06-26T15:21:25.551Z,102507.71
2019-06-26T15:24:35.919Z,102503.47
2019-06-26T15:27:46.109Z,102503.52
2019-06-26T15:30:56.160Z,102498.22
2019-06-26T15:34:06.767Z,102507.27
2019-06-26T15:37:16.438Z,102511.41
2019-06-26T15:40:26.264Z,102512.67
2019-06-26T15:43:36.413Z,102512.01
2019-06-26T15:46:47.592Z,102521.23
2019-06-26T15:49:57.831Z,102515.37
2019-06-26T15:53:08.824Z,102517.41
2019-06-26T15:56:19.567Z,102522.75
2019-06-26T15:59:31.148Z,102517.13
2019-06-26T16:02:42.021Z,102526.83
2019-06-26T16:05:53.113Z,102510.75
2019-06-26T16:09:03.919Z,102503.45
2019-06-26T16:12:15.139Z,102516.28
2019-06-26T16:15:26.363Z,102525.02
2019-06-26T16:18:43.255Z,102518.74
2019-06-26T16:21:54.091Z,102521.21
2019-06-26T16:25:08.053Z,102530.66
2019-06-26T16:28:18.303Z,102532.67
2019-06-26T16:31:29.177Z,102542.11
2019-06-26T16:34:40.018Z,102538.50
2019-06-26T16:37:50.764Z,102553.70
2019-06-26T16:41:01.973Z,102550.32
2019-06-26T16:44:12.521Z,102555.59
2019-06-26T16:47:22.471Z,102542.57
2019-06-26T16:50:32.616Z,102549.84
2019-06-26T16:53:42.670Z,102547.88
2019-06-26T16:56:53.582Z,102543.98
2019-06-26T17:00:09.795Z,102540.81
2019-06-26T17:03:17.581Z,102555.53
2019-06-26T17:06:28.017Z,102551.91
2019-06-26T17:09:39.945Z,102547.83
2019-06-26T17:12:49.884Z,102561.47
2019-06-26T17:16:01.624Z,102557.27
2019-06-26T17:19:13.862Z,102565.34
2019-06-26T17:22:23.775Z,102574.39
2019-06-26T17:25:34.595Z,102572.66
2019-06-26T17:28:45.473Z,102578.70
2019-06-26T17:31:55.605Z,102569.97
2019-06-26T17:35:06.153Z,102589.23
2019-06-26T17:38:16.359Z,102599.09
2019-06-26T17:41:27.511Z,102601.55
2019-06-26T17:44:38.206Z,102610.84
2019-06-26T17:47:48.482Z,102614.39
2019-06-26T17:50:59.318Z,102609.30
2019-06-26T17:54:10.265Z,102614.13
2019-06-26T17:57:20.237Z,102612.75
2019-06-26T18:00:36.099Z,102612.98
2019-06-26T18:03:47.251Z,102616.20
2019-06-26T18:06:57.821Z,102609.77
2019-06-26T18:10:08.963Z,102624.47
2019-06-26T18:13:19.922Z,102617.72
2019-06-26T18:16:29.747Z,102625.77
2019-06-26T18:19:40.471Z,102639.09
2019-06-26T18:23:05.745Z,102632.34
2019-06-26T18:26:13.014Z,102637.44
2019-06-26T18:29:18.583Z,102633.27
2019-06-26T18:32:30.607Z,102640.68
2019-06-26T18:35:40.791Z,102643.59
2019-06-26T18:38:56.171Z,102649.16
2019-06-26T18:42:06.987Z,102658.31
2019-06-26T18:45:18.194Z,102653.73
2019-06-26T18:48:40.235Z,102655.14
2019-06-26T18:51:53.299Z,102657.16
2019-06-26T18:55:03.734Z,102659.80
2019-06-26T18:58:14.784Z,102656.87
2019-06-26T19:01:25.697Z,102652.69
2019-06-26T19:04:35.547Z,102656.91
2019-06-26T19:07:46.488Z,102666.71
2019-06-26T19:10:57.005Z,102665.84
2019-06-26T19:14:08.030Z,102672.05
2019-06-26T19:17:18.058Z,102680.00
2019-06-26T19:20:29.066Z,102677.75
2019-06-26T19:23:39.772Z,102687.31
2019-06-26T19:26:50.975Z,102687.19
2019-06-26T19:30:01.076Z,102682.21
2019-06-26T19:33:10.813Z,102687.78
2019-06-26T19:36:24.137Z,102687.23
2019-06-26T19:39:33.040Z,102686.05
2019-06-26T19:42:44.254Z,102699.25
2019-06-26T19:45:55.092Z,102695.17
2019-06-26T19:49:06.017Z,102699.05
2019-06-26T19:52:16.811Z,102702.50
2019-06-26T19:55:26.796Z,102697.97
2019-06-26T19:58:37.774Z,102699.00
2019-06-26T20:01:51.278Z,102705.13
2019-06-26T20:05:00.706Z,102702.31
2019-06-26T20:08:11.195Z,102700.33
2019-06-26T20:11:22.389Z,102699.41
2019-06-26T20:14:32.555Z,102696.64
2019-06-26T20:17:42.370Z,102699.80
2019-06-26T20:20:52.960Z,102706.62
2019-06-26T20:24:03.120Z,102702.94
2019-06-26T20:27:15.032Z,102706.92
2019-06-26T20:30:30.558Z,102708.30
2019-06-26T20:33:41.456Z,102710.12
2019-06-26T20:36:52.472Z,102707.27
2019-06-26T20:40:06.253Z,102713.39
2019-06-26T20:43:16.741Z,102717.91
2019-06-26T20:46:26.912Z,102712.21
2019-06-26T20:49:52.586Z,102704.23
2019-06-26T20:52:51.148Z,102716.92
2019-06-26T20:56:05.260Z,102720.58
2019-06-26T20:59:13.299Z,102716.87
2019-06-26T21:02:23.574Z,102717.34
2019-06-26T21:05:34.290Z,102724.35
2019-06-26T21:08:45.281Z,102724.58
2019-06-26T21:11:56.119Z,102724.03
2019-06-26T21:15:07.697Z,102719.73
2019-06-26T21:17:42.505Z,102719.28
2019-06-26T21:20:18.090Z,102722.49
2019-06-26T21:22:53.079Z,102723.19
2019-06-26T21:25:28.190Z,102727.58
2019-06-26T21:28:06.524Z,102725.77
2019-06-26T21:30:41.725Z,102730.39
2019-06-26T21:33:16.738Z,102731.95
2019-06-26T21:35:51.768Z,102730.37
2019-06-26T21:38:26.767Z,102732.17
2019-06-26T21:41:03.162Z,102740.90
2019-06-26T21:43:38.135Z,102737.55
2019-06-26T21:46:13.146Z,102739.45
2019-06-26T21:48:48.213Z,102752.41
2019-06-26T21:51:23.235Z,102759.17
2019-06-26T21:53:58.328Z,102752.42
2019-06-26T21:56:51.055Z,102755.25
2019-06-26T21:59:43.817Z,102754.39
2019-06-26T22:02:36.587Z,102750.86
2019-06-26T22:05:12.211Z,102751.20
2019-06-26T22:07:54.351Z,102744.06
2019-06-26T22:10:30.975Z,102746.59
2019-06-26T22:13:06.286Z,102750.28
2019-06-26T22:15:41.464Z,102754.08
2019-06-26T22:18:16.495Z,102755.77
2019-06-26T22:20:52.103Z,102763.62
2019-06-26T22:23:27.162Z,102760.47
2019-06-26T22:26:02.255Z,102765.30
2019-06-26T22:28:38.043Z,102759.38
2019-06-26T22:31:13.026Z,102758.13
2019-06-26T22:33:47.993Z,102754.67
2019-06-26T22:36:22.982Z,102762.78
2019-06-26T22:38:59.151Z,102760.07
2019-06-26T22:41:34.999Z,102751.47
2019-06-26T22:44:09.970Z,102751.59
2019-06-26T22:46:45.165Z,102762.97
2019-06-26T22:49:20.239Z,102759.63
2019-06-26T22:51:56.081Z,102771.39
2019-06-26T22:54:31.039Z,102761.48
2019-06-26T22:57:06.036Z,102765.89
2019-06-26T22:59:41.129Z,102762.67
2019-06-26T23:02:17.507Z,102769.67
2019-06-26T23:04:52.502Z,102766.22
2019-06-26T23:07:27.485Z,102762.34
2019-06-26T23:10:02.477Z,102768.41
2019-06-26T23:12:37.607Z,102765.76
2019-06-26T23:15:13.209Z,102764.56
2019-06-26T23:17:48.437Z,102772.26
2019-06-26T23:20:23.406Z,102766.29
2019-06-26T23:22:58.504Z,102767.98
2019-06-26T23:25:35.186Z,102775.64
2019-06-26T23:28:10.203Z,102778.06
2019-06-26T23:30:45.179Z,102774.41
2019-06-26T23:33:20.376Z,102778.19
2019-06-26T23:35:55.348Z,102780.11
2019-06-26T23:38:31.529Z,102780.84
2019-06-26T23:41:06.519Z,102780.35
2019-06-26T23:43:41.635Z,102782.94
2019-06-26T23:46:16.603Z,102788.23
2019-06-26T23:48:51.813Z,102790.62
2019-06-26T23:51:26.773Z,102790.68
2019-06-26T23:54:01.823Z,102789.17
2019-06-26T23:56:40.632Z,102785.08
2019-06-26T23:59:13.661Z,102792.47
